<?xml version="1.0" encoding="UTF-8"?>
<gpx xmlns="http://www.topografix.com/GPX/1/1" xmlns:xsi="http://www.w3.org/2001/XMLSchema-instance" version="1.1" xsi:schemaLocation="http://www.topografix.com/GPX/1/1 http://www.topografix.com/GPX/1/1/gpx.xsd">
  <metadata>
    <name>Tri the Wildwoods 2022 - Sprint Aquabike</name>
  </metadata>
  <trk>
    <name>Tri the Wildwoods 2022 - Sprint Aquabike</name>
    <trkseg>
      <trkpt lat="38.996031" lon="-74.794335">
        <ele>0.23335</ele>
        <time>2024-08-24T06:54:00.000Z</time>
      </trkpt>
      <trkpt lat="38.996034" lon="-74.794327">
        <ele>0.233344</ele>
        <time>2024-08-24T06:54:00.000Z</time>
      </trkpt>
      <trkpt lat="38.996516" lon="-74.793678">
        <ele>0.233349</ele>
        <time>2024-08-24T06:54:08.000Z</time>
      </trkpt>
      <trkpt lat="38.99705" lon="-74.793027">
        <ele>0.426688</ele>
        <time>2024-08-24T06:54:16.000Z</time>
      </trkpt>
      <trkpt lat="38.997599" lon="-74.792363">
        <ele>0.684666</ele>
        <time>2024-08-24T06:54:24.000Z</time>
      </trkpt>
      <trkpt lat="38.998132" lon="-74.791714">
        <ele>0.909273</ele>
        <time>2024-08-24T06:54:32.000Z</time>
      </trkpt>
      <trkpt lat="38.998678" lon="-74.791065">
        <ele>1.060409</ele>
        <time>2024-08-24T06:54:40.000Z</time>
      </trkpt>
      <trkpt lat="38.999208" lon="-74.790406">
        <ele>1.208489</ele>
        <time>2024-08-24T06:54:48.000Z</time>
      </trkpt>
      <trkpt lat="38.9996" lon="-74.789576">
        <ele>0.966645</ele>
        <time>2024-08-24T06:54:56.000Z</time>
      </trkpt>
      <trkpt lat="38.999824" lon="-74.789111">
        <ele>0.806918</ele>
        <time>2024-08-24T06:55:01.000Z</time>
      </trkpt>
      <trkpt lat="39.000057" lon="-74.78882">
        <ele>0.676268</ele>
        <time>2024-08-24T06:55:05.000Z</time>
      </trkpt>
      <trkpt lat="39.0006" lon="-74.788157">
        <ele>0.515875</ele>
        <time>2024-08-24T06:55:13.000Z</time>
      </trkpt>
      <trkpt lat="39.001148" lon="-74.787516">
        <ele>0.478374</ele>
        <time>2024-08-24T06:55:21.000Z</time>
      </trkpt>
      <trkpt lat="39.001434" lon="-74.787182">
        <ele>0.459445</ele>
        <time>2024-08-24T06:55:25.000Z</time>
      </trkpt>
      <trkpt lat="39.001464" lon="-74.787149">
        <ele>0.45753</ele>
        <time>2024-08-24T06:55:25.000Z</time>
      </trkpt>
      <trkpt lat="39.001641" lon="-74.786927">
        <ele>0.444771</ele>
        <time>2024-08-24T06:55:28.000Z</time>
      </trkpt>
      <trkpt lat="39.001706" lon="-74.786895">
        <ele>0.459571</ele>
        <time>2024-08-24T06:55:29.000Z</time>
      </trkpt>
      <trkpt lat="39.001747" lon="-74.786924">
        <ele>0.47681</ele>
        <time>2024-08-24T06:55:30.000Z</time>
      </trkpt>
      <trkpt lat="39.002738" lon="-74.788286">
        <ele>0.936495</ele>
        <time>2024-08-24T06:55:46.000Z</time>
      </trkpt>
      <trkpt lat="39.002794" lon="-74.788352">
        <ele>0.961062</ele>
        <time>2024-08-24T06:55:47.000Z</time>
      </trkpt>
      <trkpt lat="39.002847" lon="-74.788425">
        <ele>0.986028</ele>
        <time>2024-08-24T06:55:48.000Z</time>
      </trkpt>
      <trkpt lat="39.00285" lon="-74.788436">
        <ele>0.990343</ele>
        <time>2024-08-24T06:55:48.000Z</time>
      </trkpt>
      <trkpt lat="39.003802" lon="-74.789744">
        <ele>0.991046</ele>
        <time>2024-08-24T06:56:03.000Z</time>
      </trkpt>
      <trkpt lat="39.003892" lon="-74.789851">
        <ele>0.988637</ele>
        <time>2024-08-24T06:56:04.000Z</time>
      </trkpt>
      <trkpt lat="39.003949" lon="-74.789792">
        <ele>0.987112</ele>
        <time>2024-08-24T06:56:05.000Z</time>
      </trkpt>
      <trkpt lat="39.00437" lon="-74.789259">
        <ele>0.968784</ele>
        <time>2024-08-24T06:56:12.000Z</time>
      </trkpt>
      <trkpt lat="39.00443" lon="-74.789225">
        <ele>0.966107</ele>
        <time>2024-08-24T06:56:13.000Z</time>
      </trkpt>
      <trkpt lat="39.004514" lon="-74.789318">
        <ele>0.961833</ele>
        <time>2024-08-24T06:56:14.000Z</time>
      </trkpt>
      <trkpt lat="39.005577" lon="-74.790773">
        <ele>0.911084</ele>
        <time>2024-08-24T06:56:31.000Z</time>
      </trkpt>
      <trkpt lat="39.005636" lon="-74.790866">
        <ele>0.913002</ele>
        <time>2024-08-24T06:56:32.000Z</time>
      </trkpt>
      <trkpt lat="39.005687" lon="-74.790911">
        <ele>0.914618</ele>
        <time>2024-08-24T06:56:33.000Z</time>
      </trkpt>
      <trkpt lat="39.006655" lon="-74.79223">
        <ele>0.949298</ele>
        <time>2024-08-24T06:56:49.000Z</time>
      </trkpt>
      <trkpt lat="39.006706" lon="-74.792296">
        <ele>0.945872</ele>
        <time>2024-08-24T06:56:50.000Z</time>
      </trkpt>
      <trkpt lat="39.00675" lon="-74.792223">
        <ele>0.939523</ele>
        <time>2024-08-24T06:56:51.000Z</time>
      </trkpt>
      <trkpt lat="39.006966" lon="-74.791975">
        <ele>0.916798</ele>
        <time>2024-08-24T06:56:54.000Z</time>
      </trkpt>
      <trkpt lat="39.007192" lon="-74.791706">
        <ele>0.893211</ele>
        <time>2024-08-24T06:56:57.000Z</time>
      </trkpt>
      <trkpt lat="39.007214" lon="-74.791671">
        <ele>0.890171</ele>
        <time>2024-08-24T06:56:57.000Z</time>
      </trkpt>
      <trkpt lat="39.00724" lon="-74.79164">
        <ele>0.887585</ele>
        <time>2024-08-24T06:56:57.000Z</time>
      </trkpt>
      <trkpt lat="39.007298" lon="-74.791566">
        <ele>0.881659</ele>
        <time>2024-08-24T06:56:58.000Z</time>
      </trkpt>
      <trkpt lat="39.007559" lon="-74.791257">
        <ele>0.853693</ele>
        <time>2024-08-24T06:57:02.000Z</time>
      </trkpt>
      <trkpt lat="39.007606" lon="-74.791196">
        <ele>0.847658</ele>
        <time>2024-08-24T06:57:03.000Z</time>
      </trkpt>
      <trkpt lat="39.007665" lon="-74.791139">
        <ele>0.841636</ele>
        <time>2024-08-24T06:57:04.000Z</time>
      </trkpt>
      <trkpt lat="39.007796" lon="-74.790998">
        <ele>0.828481</ele>
        <time>2024-08-24T06:57:06.000Z</time>
      </trkpt>
      <trkpt lat="39.008114" lon="-74.790805">
        <ele>0.811984</ele>
        <time>2024-08-24T06:57:10.000Z</time>
      </trkpt>
      <trkpt lat="39.008386" lon="-74.790776">
        <ele>0.824232</ele>
        <time>2024-08-24T06:57:13.000Z</time>
      </trkpt>
      <trkpt lat="39.008543" lon="-74.790821">
        <ele>0.831263</ele>
        <time>2024-08-24T06:57:15.000Z</time>
      </trkpt>
      <trkpt lat="39.008815" lon="-74.791025">
        <ele>0.84552</ele>
        <time>2024-08-24T06:57:19.000Z</time>
      </trkpt>
      <trkpt lat="39.009146" lon="-74.791464">
        <ele>0.86638</ele>
        <time>2024-08-24T06:57:24.000Z</time>
      </trkpt>
      <trkpt lat="39.009413" lon="-74.791805">
        <ele>0.88284</ele>
        <time>2024-08-24T06:57:28.000Z</time>
      </trkpt>
      <trkpt lat="39.009453" lon="-74.791881">
        <ele>0.886453</ele>
        <time>2024-08-24T06:57:29.000Z</time>
      </trkpt>
      <trkpt lat="39.009507" lon="-74.791944">
        <ele>0.890147</ele>
        <time>2024-08-24T06:57:30.000Z</time>
      </trkpt>
      <trkpt lat="39.009588" lon="-74.792073">
        <ele>0.89815</ele>
        <time>2024-08-24T06:57:31.000Z</time>
      </trkpt>
      <trkpt lat="39.01007" lon="-74.792728">
        <ele>0.941651</ele>
        <time>2024-08-24T06:57:39.000Z</time>
      </trkpt>
      <trkpt lat="39.010265" lon="-74.792988">
        <ele>0.95898</ele>
        <time>2024-08-24T06:57:42.000Z</time>
      </trkpt>
      <trkpt lat="39.010534" lon="-74.79335">
        <ele>0.983741</ele>
        <time>2024-08-24T06:57:46.000Z</time>
      </trkpt>
      <trkpt lat="39.010764" lon="-74.793614">
        <ele>1.000003</ele>
        <time>2024-08-24T06:57:49.000Z</time>
      </trkpt>
      <trkpt lat="39.011039" lon="-74.793779">
        <ele>1.000005</ele>
        <time>2024-08-24T06:57:52.000Z</time>
      </trkpt>
      <trkpt lat="39.011166" lon="-74.793861">
        <ele>1</ele>
        <time>2024-08-24T06:57:54.000Z</time>
      </trkpt>
      <trkpt lat="39.012134" lon="-74.794409">
        <ele>1.000007</ele>
        <time>2024-08-24T06:58:06.000Z</time>
      </trkpt>
      <trkpt lat="39.012525" lon="-74.79453">
        <ele>1.000681</ele>
        <time>2024-08-24T06:58:10.000Z</time>
      </trkpt>
      <trkpt lat="39.01316" lon="-74.794553">
        <ele>1.003497</ele>
        <time>2024-08-24T06:58:17.000Z</time>
      </trkpt>
      <trkpt lat="39.013916" lon="-74.794584">
        <ele>1.006823</ele>
        <time>2024-08-24T06:58:25.000Z</time>
      </trkpt>
      <trkpt lat="39.014067" lon="-74.794586">
        <ele>1.007553</ele>
        <time>2024-08-24T06:58:27.000Z</time>
      </trkpt>
      <trkpt lat="39.014085" lon="-74.794588">
        <ele>1.007609</ele>
        <time>2024-08-24T06:58:27.000Z</time>
      </trkpt>
      <trkpt lat="39.014529" lon="-74.794616">
        <ele>1.053322</ele>
        <time>2024-08-24T06:58:32.000Z</time>
      </trkpt>
      <trkpt lat="39.015563" lon="-74.794654">
        <ele>1.184901</ele>
        <time>2024-08-24T06:58:44.000Z</time>
      </trkpt>
      <trkpt lat="39.016195" lon="-74.794669">
        <ele>1.290317</ele>
        <time>2024-08-24T06:58:51.000Z</time>
      </trkpt>
      <trkpt lat="39.016522" lon="-74.794743">
        <ele>1.372054</ele>
        <time>2024-08-24T06:58:55.000Z</time>
      </trkpt>
      <trkpt lat="39.016716" lon="-74.794882">
        <ele>1.42463</ele>
        <time>2024-08-24T06:58:57.000Z</time>
      </trkpt>
      <trkpt lat="39.016754" lon="-74.794915">
        <ele>1.434733</ele>
        <time>2024-08-24T06:58:58.000Z</time>
      </trkpt>
      <trkpt lat="39.017151" lon="-74.795458">
        <ele>1.572473</ele>
        <time>2024-08-24T06:59:04.000Z</time>
      </trkpt>
      <trkpt lat="39.017185" lon="-74.795528">
        <ele>1.586968</ele>
        <time>2024-08-24T06:59:05.000Z</time>
      </trkpt>
      <trkpt lat="39.017523" lon="-74.795971">
        <ele>1.656878</ele>
        <time>2024-08-24T06:59:10.000Z</time>
      </trkpt>
      <trkpt lat="39.017612" lon="-74.796132">
        <ele>1.648529</ele>
        <time>2024-08-24T06:59:12.000Z</time>
      </trkpt>
      <trkpt lat="39.017659" lon="-74.796976">
        <ele>1.613861</ele>
        <time>2024-08-24T06:59:19.000Z</time>
      </trkpt>
      <trkpt lat="39.017668" lon="-74.797062">
        <ele>1.6104</ele>
        <time>2024-08-24T06:59:20.000Z</time>
      </trkpt>
      <trkpt lat="39.017673" lon="-74.797126">
        <ele>1.607865</ele>
        <time>2024-08-24T06:59:21.000Z</time>
      </trkpt>
      <trkpt lat="39.017712" lon="-74.798056">
        <ele>1.569187</ele>
        <time>2024-08-24T06:59:29.000Z</time>
      </trkpt>
      <trkpt lat="39.017723" lon="-74.79893">
        <ele>1.51931</ele>
        <time>2024-08-24T06:59:37.000Z</time>
      </trkpt>
      <trkpt lat="39.018528" lon="-74.798866">
        <ele>1.460013</ele>
        <time>2024-08-24T06:59:46.000Z</time>
      </trkpt>
      <trkpt lat="39.019493" lon="-74.798962">
        <ele>1.458403</ele>
        <time>2024-08-24T06:59:57.000Z</time>
      </trkpt>
      <trkpt lat="39.019903" lon="-74.799072">
        <ele>1.470503</ele>
        <time>2024-08-24T07:00:02.000Z</time>
      </trkpt>
      <trkpt lat="39.020925" lon="-74.799503">
        <ele>1.45013</ele>
        <time>2024-08-24T07:00:14.000Z</time>
      </trkpt>
      <trkpt lat="39.021617" lon="-74.799996">
        <ele>1.36721</ele>
        <time>2024-08-24T07:00:23.000Z</time>
      </trkpt>
      <trkpt lat="39.022234" lon="-74.800592">
        <ele>1.279802</ele>
        <time>2024-08-24T07:00:32.000Z</time>
      </trkpt>
      <trkpt lat="39.022501" lon="-74.800888">
        <ele>1.227274</ele>
        <time>2024-08-24T07:00:36.000Z</time>
      </trkpt>
      <trkpt lat="39.022948" lon="-74.801556">
        <ele>1.128427</ele>
        <time>2024-08-24T07:00:44.000Z</time>
      </trkpt>
      <trkpt lat="39.023352" lon="-74.802304">
        <ele>1.036469</ele>
        <time>2024-08-24T07:00:52.000Z</time>
      </trkpt>
      <trkpt lat="39.024823" lon="-74.805367">
        <ele>0.999993</ele>
        <time>2024-08-24T07:01:23.000Z</time>
      </trkpt>
      <trkpt lat="39.025158" lon="-74.806086">
        <ele>0.999999</ele>
        <time>2024-08-24T07:01:30.000Z</time>
      </trkpt>
      <trkpt lat="39.025535" lon="-74.806906">
        <ele>0.999998</ele>
        <time>2024-08-24T07:01:38.000Z</time>
      </trkpt>
      <trkpt lat="39.026206" lon="-74.808296">
        <ele>0.999992</ele>
        <time>2024-08-24T07:01:52.000Z</time>
      </trkpt>
      <trkpt lat="39.030168" lon="-74.816616">
        <ele>0.978402</ele>
        <time>2024-08-24T07:03:16.000Z</time>
      </trkpt>
      <trkpt lat="39.031093" lon="-74.818568">
        <ele>0.935552</ele>
        <time>2024-08-24T07:03:36.000Z</time>
      </trkpt>
      <trkpt lat="39.032523" lon="-74.821984">
        <ele>0.991795</ele>
        <time>2024-08-24T07:04:10.000Z</time>
      </trkpt>
      <trkpt lat="39.034753" lon="-74.82764">
        <ele>0.999998</ele>
        <time>2024-08-24T07:05:05.000Z</time>
      </trkpt>
      <trkpt lat="39.035301" lon="-74.828818">
        <ele>0.999991</ele>
        <time>2024-08-24T07:05:17.000Z</time>
      </trkpt>
      <trkpt lat="39.036187" lon="-74.830184">
        <ele>1.000008</ele>
        <time>2024-08-24T07:05:32.000Z</time>
      </trkpt>
      <trkpt lat="39.039782" lon="-74.83451">
        <ele>1.000004</ele>
        <time>2024-08-24T07:06:27.000Z</time>
      </trkpt>
      <trkpt lat="39.039949" lon="-74.834711">
        <ele>1.000009</ele>
        <time>2024-08-24T07:06:30.000Z</time>
      </trkpt>
      <trkpt lat="39.04053" lon="-74.835478">
        <ele>1.002633</ele>
        <time>2024-08-24T07:06:39.000Z</time>
      </trkpt>
      <trkpt lat="39.040966" lon="-74.836435">
        <ele>1.005915</ele>
        <time>2024-08-24T07:06:49.000Z</time>
      </trkpt>
      <trkpt lat="39.041149" lon="-74.837045">
        <ele>1.018755</ele>
        <time>2024-08-24T07:06:55.000Z</time>
      </trkpt>
      <trkpt lat="39.041538" lon="-74.839017">
        <ele>1.0859</ele>
        <time>2024-08-24T07:07:13.000Z</time>
      </trkpt>
      <trkpt lat="39.041712" lon="-74.839472">
        <ele>1.099894</ele>
        <time>2024-08-24T07:07:17.000Z</time>
      </trkpt>
      <trkpt lat="39.042172" lon="-74.840325">
        <ele>1.128991</ele>
        <time>2024-08-24T07:07:26.000Z</time>
      </trkpt>
      <trkpt lat="39.042147" lon="-74.840544">
        <ele>1.135069</ele>
        <time>2024-08-24T07:07:28.000Z</time>
      </trkpt>
      <trkpt lat="39.042146" lon="-74.840582">
        <ele>1.136037</ele>
        <time>2024-08-24T07:07:28.000Z</time>
      </trkpt>
      <trkpt lat="39.041918" lon="-74.840721">
        <ele>1.14518</ele>
        <time>2024-08-24T07:07:31.000Z</time>
      </trkpt>
      <trkpt lat="39.041806" lon="-74.840682">
        <ele>1.147378</ele>
        <time>2024-08-24T07:07:32.000Z</time>
      </trkpt>
      <trkpt lat="39.040979" lon="-74.836811">
        <ele>1.024453</ele>
        <time>2024-08-24T07:08:07.000Z</time>
      </trkpt>
      <trkpt lat="39.040532" lon="-74.835756">
        <ele>1.002573</ele>
        <time>2024-08-24T07:08:17.000Z</time>
      </trkpt>
      <trkpt lat="39.040209" lon="-74.835224">
        <ele>1.001543</ele>
        <time>2024-08-24T07:08:23.000Z</time>
      </trkpt>
      <trkpt lat="39.039881" lon="-74.834811">
        <ele>1.000664</ele>
        <time>2024-08-24T07:08:28.000Z</time>
      </trkpt>
      <trkpt lat="39.039688" lon="-74.834587">
        <ele>1.000167</ele>
        <time>2024-08-24T07:08:31.000Z</time>
      </trkpt>
      <trkpt lat="39.036064" lon="-74.830176">
        <ele>1.000004</ele>
        <time>2024-08-24T07:09:26.000Z</time>
      </trkpt>
      <trkpt lat="39.035325" lon="-74.829048">
        <ele>0.999994</ele>
        <time>2024-08-24T07:09:39.000Z</time>
      </trkpt>
      <trkpt lat="39.034681" lon="-74.8277">
        <ele>1.000008</ele>
        <time>2024-08-24T07:09:53.000Z</time>
      </trkpt>
      <trkpt lat="39.032046" lon="-74.821018">
        <ele>0.981252</ele>
        <time>2024-08-24T07:10:58.000Z</time>
      </trkpt>
      <trkpt lat="39.031016" lon="-74.818626">
        <ele>0.921124</ele>
        <time>2024-08-24T07:11:22.000Z</time>
      </trkpt>
      <trkpt lat="39.030099" lon="-74.816677">
        <ele>0.909628</ele>
        <time>2024-08-24T07:11:42.000Z</time>
      </trkpt>
      <trkpt lat="39.026129" lon="-74.808343">
        <ele>0.994557</ele>
        <time>2024-08-24T07:13:06.000Z</time>
      </trkpt>
      <trkpt lat="39.025095" lon="-74.806162">
        <ele>0.999913</ele>
        <time>2024-08-24T07:13:28.000Z</time>
      </trkpt>
      <trkpt lat="39.024968" lon="-74.805909">
        <ele>0.999961</ele>
        <time>2024-08-24T07:13:31.000Z</time>
      </trkpt>
      <trkpt lat="39.023283" lon="-74.802359">
        <ele>1.05823</ele>
        <time>2024-08-24T07:14:07.000Z</time>
      </trkpt>
      <trkpt lat="39.022875" lon="-74.801622">
        <ele>1.104855</ele>
        <time>2024-08-24T07:14:15.000Z</time>
      </trkpt>
      <trkpt lat="39.022434" lon="-74.800978">
        <ele>1.196492</ele>
        <time>2024-08-24T07:14:22.000Z</time>
      </trkpt>
      <trkpt lat="39.021868" lon="-74.800358">
        <ele>1.298599</ele>
        <time>2024-08-24T07:14:30.000Z</time>
      </trkpt>
      <trkpt lat="39.021359" lon="-74.799938">
        <ele>1.342881</ele>
        <time>2024-08-24T07:14:37.000Z</time>
      </trkpt>
      <trkpt lat="39.020887" lon="-74.799611">
        <ele>1.364303</ele>
        <time>2024-08-24T07:14:43.000Z</time>
      </trkpt>
      <trkpt lat="39.020043" lon="-74.799221">
        <ele>1.397756</ele>
        <time>2024-08-24T07:14:53.000Z</time>
      </trkpt>
      <trkpt lat="39.019396" lon="-74.799069">
        <ele>1.382788</ele>
        <time>2024-08-24T07:15:00.000Z</time>
      </trkpt>
      <trkpt lat="39.018601" lon="-74.798982">
        <ele>1.364527</ele>
        <time>2024-08-24T07:15:09.000Z</time>
      </trkpt>
      <trkpt lat="39.017719" lon="-74.799056">
        <ele>1.437721</ele>
        <time>2024-08-24T07:15:19.000Z</time>
      </trkpt>
      <trkpt lat="39.017713" lon="-74.798941">
        <ele>1.450715</ele>
        <time>2024-08-24T07:15:20.000Z</time>
      </trkpt>
      <trkpt lat="39.017715" lon="-74.798061">
        <ele>1.548412</ele>
        <time>2024-08-24T07:15:28.000Z</time>
      </trkpt>
      <trkpt lat="39.01767" lon="-74.797123">
        <ele>1.609286</ele>
        <time>2024-08-24T07:15:36.000Z</time>
      </trkpt>
      <trkpt lat="39.017662" lon="-74.797046">
        <ele>1.608483</ele>
        <time>2024-08-24T07:15:37.000Z</time>
      </trkpt>
      <trkpt lat="39.017658" lon="-74.796965">
        <ele>1.607392</ele>
        <time>2024-08-24T07:15:38.000Z</time>
      </trkpt>
      <trkpt lat="39.017613" lon="-74.796127">
        <ele>1.596301</ele>
        <time>2024-08-24T07:15:45.000Z</time>
      </trkpt>
      <trkpt lat="39.017512" lon="-74.795959">
        <ele>1.593637</ele>
        <time>2024-08-24T07:15:47.000Z</time>
      </trkpt>
      <trkpt lat="39.017187" lon="-74.795525">
        <ele>1.585571</ele>
        <time>2024-08-24T07:15:52.000Z</time>
      </trkpt>
      <trkpt lat="39.017144" lon="-74.795465">
        <ele>1.584531</ele>
        <time>2024-08-24T07:15:53.000Z</time>
      </trkpt>
      <trkpt lat="39.016743" lon="-74.794913">
        <ele>1.455352</ele>
        <time>2024-08-24T07:16:00.000Z</time>
      </trkpt>
      <trkpt lat="39.016725" lon="-74.794877">
        <ele>1.444901</ele>
        <time>2024-08-24T07:16:00.000Z</time>
      </trkpt>
      <trkpt lat="39.016533" lon="-74.794738">
        <ele>1.390556</ele>
        <time>2024-08-24T07:16:02.000Z</time>
      </trkpt>
      <trkpt lat="39.016193" lon="-74.794674">
        <ele>1.306039</ele>
        <time>2024-08-24T07:16:06.000Z</time>
      </trkpt>
      <trkpt lat="39.015557" lon="-74.794651">
        <ele>1.150208</ele>
        <time>2024-08-24T07:16:13.000Z</time>
      </trkpt>
      <trkpt lat="39.014531" lon="-74.794607">
        <ele>1.063292</ele>
        <time>2024-08-24T07:16:24.000Z</time>
      </trkpt>
      <trkpt lat="39.014094" lon="-74.794592">
        <ele>1.0291</ele>
        <time>2024-08-24T07:16:29.000Z</time>
      </trkpt>
      <trkpt lat="39.014079" lon="-74.794584">
        <ele>1.027842</ele>
        <time>2024-08-24T07:16:29.000Z</time>
      </trkpt>
      <trkpt lat="39.013902" lon="-74.79458">
        <ele>1.015012</ele>
        <time>2024-08-24T07:16:31.000Z</time>
      </trkpt>
      <trkpt lat="39.013162" lon="-74.794554">
        <ele>1.000178</ele>
        <time>2024-08-24T07:16:39.000Z</time>
      </trkpt>
      <trkpt lat="39.01252" lon="-74.794534">
        <ele>1.000091</ele>
        <time>2024-08-24T07:16:46.000Z</time>
      </trkpt>
      <trkpt lat="39.012125" lon="-74.7944">
        <ele>1.00003</ele>
        <time>2024-08-24T07:16:51.000Z</time>
      </trkpt>
      <trkpt lat="39.011172" lon="-74.793853">
        <ele>0.996743</ele>
        <time>2024-08-24T07:17:03.000Z</time>
      </trkpt>
      <trkpt lat="39.01103" lon="-74.793779">
        <ele>0.996209</ele>
        <time>2024-08-24T07:17:05.000Z</time>
      </trkpt>
      <trkpt lat="39.010769" lon="-74.793617">
        <ele>0.995097</ele>
        <time>2024-08-24T07:17:08.000Z</time>
      </trkpt>
      <trkpt lat="39.010534" lon="-74.793352">
        <ele>0.993931</ele>
        <time>2024-08-24T07:17:11.000Z</time>
      </trkpt>
      <trkpt lat="39.010257" lon="-74.792971">
        <ele>0.975896</ele>
        <time>2024-08-24T07:17:16.000Z</time>
      </trkpt>
      <trkpt lat="39.010082" lon="-74.792726">
        <ele>0.952979</ele>
        <time>2024-08-24T07:17:19.000Z</time>
      </trkpt>
      <trkpt lat="39.009599" lon="-74.792079">
        <ele>0.895523</ele>
        <time>2024-08-24T07:17:27.000Z</time>
      </trkpt>
      <trkpt lat="39.009502" lon="-74.791949">
        <ele>0.884946</ele>
        <time>2024-08-24T07:17:29.000Z</time>
      </trkpt>
      <trkpt lat="39.009452" lon="-74.79188">
        <ele>0.879437</ele>
        <time>2024-08-24T07:17:30.000Z</time>
      </trkpt>
      <trkpt lat="39.009401" lon="-74.791801">
        <ele>0.87269</ele>
        <time>2024-08-24T07:17:31.000Z</time>
      </trkpt>
      <trkpt lat="39.009163" lon="-74.791454">
        <ele>0.844672</ele>
        <time>2024-08-24T07:17:35.000Z</time>
      </trkpt>
      <trkpt lat="39.008819" lon="-74.791033">
        <ele>0.843624</ele>
        <time>2024-08-24T07:17:40.000Z</time>
      </trkpt>
      <trkpt lat="39.008539" lon="-74.790818">
        <ele>0.842913</ele>
        <time>2024-08-24T07:17:44.000Z</time>
      </trkpt>
      <trkpt lat="39.008381" lon="-74.790774">
        <ele>0.842557</ele>
        <time>2024-08-24T07:17:46.000Z</time>
      </trkpt>
      <trkpt lat="39.008128" lon="-74.790845">
        <ele>0.841972</ele>
        <time>2024-08-24T07:17:49.000Z</time>
      </trkpt>
      <trkpt lat="39.007859" lon="-74.7911">
        <ele>0.841274</ele>
        <time>2024-08-24T07:17:53.000Z</time>
      </trkpt>
      <trkpt lat="39.007668" lon="-74.791329">
        <ele>0.843727</ele>
        <time>2024-08-24T07:17:56.000Z</time>
      </trkpt>
      <trkpt lat="39.007375" lon="-74.791683">
        <ele>0.871636</ele>
        <time>2024-08-24T07:18:00.000Z</time>
      </trkpt>
      <trkpt lat="39.007321" lon="-74.791758">
        <ele>0.876838</ele>
        <time>2024-08-24T07:18:01.000Z</time>
      </trkpt>
      <trkpt lat="39.007272" lon="-74.791817">
        <ele>0.882039</ele>
        <time>2024-08-24T07:18:02.000Z</time>
      </trkpt>
      <trkpt lat="39.006829" lon="-74.792323">
        <ele>0.922539</ele>
        <time>2024-08-24T07:18:09.000Z</time>
      </trkpt>
      <trkpt lat="39.006776" lon="-74.792395">
        <ele>0.928073</ele>
        <time>2024-08-24T07:18:10.000Z</time>
      </trkpt>
      <trkpt lat="39.006705" lon="-74.792297">
        <ele>0.936344</ele>
        <time>2024-08-24T07:18:11.000Z</time>
      </trkpt>
      <trkpt lat="39.006647" lon="-74.792232">
        <ele>0.940655</ele>
        <time>2024-08-24T07:18:12.000Z</time>
      </trkpt>
      <trkpt lat="39.005684" lon="-74.790917">
        <ele>0.927201</ele>
        <time>2024-08-24T07:18:28.000Z</time>
      </trkpt>
      <trkpt lat="39.005639" lon="-74.790856">
        <ele>0.924846</ele>
        <time>2024-08-24T07:18:29.000Z</time>
      </trkpt>
      <trkpt lat="39.005581" lon="-74.790786">
        <ele>0.922034</ele>
        <time>2024-08-24T07:18:30.000Z</time>
      </trkpt>
      <trkpt lat="39.004514" lon="-74.789316">
        <ele>0.966233</ele>
        <time>2024-08-24T07:18:47.000Z</time>
      </trkpt>
      <trkpt lat="39.004428" lon="-74.789232">
        <ele>0.973121</ele>
        <time>2024-08-24T07:18:48.000Z</time>
      </trkpt>
      <trkpt lat="39.004369" lon="-74.789268">
        <ele>0.977426</ele>
        <time>2024-08-24T07:18:49.000Z</time>
      </trkpt>
      <trkpt lat="39.003953" lon="-74.789789">
        <ele>1.017383</ele>
        <time>2024-08-24T07:18:55.000Z</time>
      </trkpt>
      <trkpt lat="39.003889" lon="-74.789854">
        <ele>1.021846</ele>
        <time>2024-08-24T07:18:56.000Z</time>
      </trkpt>
      <trkpt lat="39.003812" lon="-74.789742">
        <ele>1.01628</ele>
        <time>2024-08-24T07:18:57.000Z</time>
      </trkpt>
      <trkpt lat="39.002859" lon="-74.78844">
        <ele>0.951186</ele>
        <time>2024-08-24T07:19:12.000Z</time>
      </trkpt>
      <trkpt lat="39.002845" lon="-74.788428">
        <ele>0.950567</ele>
        <time>2024-08-24T07:19:12.000Z</time>
      </trkpt>
      <trkpt lat="39.002795" lon="-74.788354">
        <ele>0.946888</ele>
        <time>2024-08-24T07:19:13.000Z</time>
      </trkpt>
      <trkpt lat="39.00274" lon="-74.788274">
        <ele>0.943292</ele>
        <time>2024-08-24T07:19:14.000Z</time>
      </trkpt>
      <trkpt lat="39.001748" lon="-74.786935">
        <ele>0.504265</ele>
        <time>2024-08-24T07:19:30.000Z</time>
      </trkpt>
      <trkpt lat="39.001706" lon="-74.786903">
        <ele>0.486587</ele>
        <time>2024-08-24T07:19:31.000Z</time>
      </trkpt>
      <trkpt lat="39.001647" lon="-74.786931">
        <ele>0.466061</ele>
        <time>2024-08-24T07:19:32.000Z</time>
      </trkpt>
      <trkpt lat="39.001452" lon="-74.787149">
        <ele>0.382985</ele>
        <time>2024-08-24T07:19:35.000Z</time>
      </trkpt>
      <trkpt lat="39.001431" lon="-74.787182">
        <ele>0.370569</ele>
        <time>2024-08-24T07:19:35.000Z</time>
      </trkpt>
      <trkpt lat="39.001146" lon="-74.787517">
        <ele>0.41141</ele>
        <time>2024-08-24T07:19:39.000Z</time>
      </trkpt>
      <trkpt lat="39.000608" lon="-74.788171">
        <ele>0.557834</ele>
        <time>2024-08-24T07:19:47.000Z</time>
      </trkpt>
      <trkpt lat="39.000065" lon="-74.788816">
        <ele>0.70293</ele>
        <time>2024-08-24T07:19:55.000Z</time>
      </trkpt>
      <trkpt lat="38.999817" lon="-74.789114">
        <ele>0.806241</ele>
        <time>2024-08-24T07:19:59.000Z</time>
      </trkpt>
      <trkpt lat="38.999603" lon="-74.789568">
        <ele>0.932574</ele>
        <time>2024-08-24T07:20:04.000Z</time>
      </trkpt>
      <trkpt lat="38.999209" lon="-74.790392">
        <ele>1.162169</ele>
        <time>2024-08-24T07:20:12.000Z</time>
      </trkpt>
      <trkpt lat="38.998686" lon="-74.791055">
        <ele>1.111416</ele>
        <time>2024-08-24T07:20:20.000Z</time>
      </trkpt>
      <trkpt lat="38.998139" lon="-74.791714">
        <ele>0.87982</ele>
        <time>2024-08-24T07:20:28.000Z</time>
      </trkpt>
      <trkpt lat="38.99759" lon="-74.792366">
        <ele>0.670109554089</ele>
        <time>2024-08-24T07:20:36.000Z</time>
      </trkpt>
      <trkpt lat="38.997061" lon="-74.793026">
        <ele>0.463277407953</ele>
        <time>2024-08-24T07:20:44.000Z</time>
      </trkpt>
      <trkpt lat="38.996509" lon="-74.793681">
        <ele>0.252502783408</ele>
        <time>2024-08-24T07:20:52.000Z</time>
      </trkpt>
      <trkpt lat="38.996021" lon="-74.794333">
        <ele>0.0550306254914</ele>
        <time>2024-08-24T07:21:00.000Z</time>
      </trkpt>
      <trkpt lat="38.996027" lon="-74.794342">
        <ele>0.0524438387216</ele>
        <time>2024-08-24T07:21:00.000Z</time>
      </trkpt>
    </trkseg>
  </trk>
</gpx>

<!--
Performance optimized by W3 Total Cache. Learn more: https://www.boldgrid.com/w3-total-cache/?utm_source=w3tc&utm_medium=footer_comment&utm_campaign=free_plugin

Page Caching using Disk: Enhanced{w3tc_pagecache_reject_reason} 

Served from: www.aquabike.world @ 2026-05-10 17:33:51 by W3 Total Cache
-->